createdAt,value
2019-05-17T00:02:09.969Z,101097.20
2019-05-17T00:04:37.176Z,101083.55
2019-05-17T00:07:06.521Z,101090.58
2019-05-17T00:09:34.095Z,101088.76
2019-05-17T00:12:01.808Z,101084.77
2019-05-17T00:14:29.033Z,101074.68
2019-05-17T00:16:57.350Z,101072.94
2019-05-17T00:19:26.348Z,101056.70
2019-05-17T00:21:56.497Z,101056.70
2019-05-17T00:24:23.602Z,101061.13
2019-05-17T00:26:51.191Z,101064.75
2019-05-17T00:29:18.965Z,101069.02
2019-05-17T00:31:47.133Z,101069.02
2019-05-17T00:34:16.606Z,101048.84
2019-05-17T00:36:44.073Z,101048.84
2019-05-17T00:39:11.553Z,101034.77
2019-05-17T00:41:38.973Z,101034.77
2019-05-17T00:44:06.473Z,101054.92
2019-05-17T00:46:33.715Z,101048.36
2019-05-17T00:49:01.324Z,101040.44
2019-05-17T00:51:29.186Z,101039.95
2019-05-17T00:53:56.607Z,101029.36
2019-05-17T00:56:26.656Z,101029.36
2019-05-17T00:58:54.203Z,101001.72
2019-05-17T01:01:21.750Z,101001.72
2019-05-17T01:03:49.122Z,101012.64
2019-05-17T01:06:17.051Z,101014.42
2019-05-17T01:08:46.396Z,101006.53
2019-05-17T01:11:13.608Z,101011.41
2019-05-17T01:13:41.158Z,101008.39
2019-05-17T01:16:08.505Z,101008.38
2019-05-17T01:18:36.319Z,101010.13
2019-05-17T01:21:06.468Z,101015.86
2019-05-17T01:23:36.240Z,101008.78
2019-05-17T01:26:03.958Z,101003.93
2019-05-17T01:28:31.684Z,101001.29
2019-05-17T01:30:59.026Z,100999.97
2019-05-17T01:33:26.639Z,101003.06
2019-05-17T01:35:54.157Z,101001.73
2019-05-17T01:38:21.271Z,100994.25
2019-05-17T01:40:48.728Z,100986.33
2019-05-17T01:43:16.658Z,100986.33
2019-05-17T01:45:44.299Z,100989.38
2019-05-17T01:48:11.895Z,100986.28
2019-05-17T01:50:39.279Z,100986.28
2019-05-17T01:53:07.465Z,100982.33
2019-05-17T01:55:37.578Z,100979.22
2019-05-17T01:58:06.992Z,100976.58
2019-05-17T02:00:33.673Z,100978.33
2019-05-17T02:03:01.333Z,100964.70
2019-05-17T02:05:29.134Z,100958.98
2019-05-17T02:07:56.929Z,100966.88
2019-05-17T02:10:24.439Z,100957.64
2019-05-17T02:12:51.844Z,100961.14
2019-05-17T02:15:20.033Z,100954.12
2019-05-17T02:17:47.584Z,100965.50
2019-05-17T02:20:17.107Z,100958.92
2019-05-17T02:22:47.062Z,100955.84
2019-05-17T02:25:16.768Z,100948.36
2019-05-17T02:27:44.860Z,100921.27
2019-05-17T02:30:14.509Z,100924.30
2019-05-17T02:32:43.495Z,100924.30
2019-05-17T02:35:14.675Z,100934.32
2019-05-17T02:37:43.482Z,100934.32
2019-05-17T02:40:14.483Z,100932.09
2019-05-17T02:42:42.981Z,100919.33
2019-05-17T02:45:13.279Z,100920.67
2019-05-17T02:47:43.606Z,100920.67
2019-05-17T02:50:12.827Z,100911.89
2019-05-17T02:52:43.397Z,100923.75
2019-05-17T02:55:12.764Z,100898.34
2019-05-17T02:57:42.833Z,100923.70
2019-05-17T03:00:12.979Z,100916.66
2019-05-17T03:02:42.852Z,100917.57
2019-05-17T03:05:12.565Z,100914.92
2019-05-17T03:07:38.705Z,100906.61
2019-05-17T03:10:18.383Z,100907.47
2019-05-17T03:12:36.531Z,100905.73
2019-05-17T03:15:04.497Z,100909.25
2019-05-17T03:17:33.806Z,100906.17
2019-05-17T03:20:04.072Z,100911.87
2019-05-17T03:22:33.130Z,100907.02
2019-05-17T03:25:03.193Z,100907.02
2019-05-17T03:27:29.862Z,100903.90
2019-05-17T03:29:57.156Z,100903.00
2019-05-17T03:32:27.104Z,100883.72
2019-05-17T03:34:56.440Z,100898.55
2019-05-17T03:37:30.136Z,100874.85
2019-05-17T03:39:53.755Z,100894.56
2019-05-17T03:42:22.632Z,100887.96
2019-05-17T03:44:53.040Z,100875.25
2019-05-17T03:47:22.679Z,100896.72
2019-05-17T03:49:52.871Z,100885.69
2019-05-17T03:52:22.228Z,100885.69
2019-05-17T03:54:52.442Z,100882.14
2019-05-17T03:57:23.635Z,100888.69
2019-05-17T03:59:52.280Z,100886.91
2019-05-17T04:02:19.076Z,100868.09
2019-05-17T04:04:46.578Z,100886.88
2019-05-17T04:07:13.797Z,100878.59
2019-05-17T04:09:43.784Z,100888.17
2019-05-17T04:12:13.493Z,100889.06
2019-05-17T04:14:42.743Z,100896.46
2019-05-17T04:17:09.515Z,100896.46
2019-05-17T04:19:37.909Z,100896.88
2019-05-17T04:22:05.236Z,100900.81
2019-05-17T04:24:33.122Z,100900.31
2019-05-17T04:27:03.582Z,100881.82
2019-05-17T04:29:33.228Z,100891.46
2019-05-17T04:31:59.703Z,100897.63
2019-05-17T04:34:27.422Z,100900.24
2019-05-17T04:36:54.692Z,100899.77
2019-05-17T04:39:22.735Z,100895.28
2019-05-17T04:41:54.652Z,100893.09
2019-05-17T04:44:19.667Z,100895.20
2019-05-17T04:46:47.611Z,100893.44
2019-05-17T04:49:15.801Z,100885.83
2019-05-17T04:51:44.103Z,100890.20
2019-05-17T04:54:13.732Z,100893.77
2019-05-17T04:56:42.611Z,100896.82
2019-05-17T04:59:13.461Z,100902.52
2019-05-17T05:01:39.222Z,100898.05
2019-05-17T05:04:06.879Z,100904.66
2019-05-17T05:06:34.651Z,100891.88
2019-05-17T05:09:05.545Z,100898.50
2019-05-17T05:11:33.101Z,100889.62
2019-05-17T05:14:02.760Z,100885.16
2019-05-17T05:16:31.863Z,100887.77
2019-05-17T05:19:02.627Z,100887.30
2019-05-17T05:21:32.062Z,100881.47
2019-05-17T05:23:58.553Z,100883.17
2019-05-17T05:26:25.906Z,100879.20
2019-05-17T05:28:53.425Z,100883.20
2019-05-17T05:31:22.744Z,100869.00
2019-05-17T05:33:52.144Z,100871.58
2019-05-17T05:36:19.459Z,100869.75
2019-05-17T05:38:46.975Z,100868.86
2019-05-17T05:41:14.294Z,100863.54
2019-05-17T05:43:42.163Z,100859.09
2019-05-17T05:46:11.693Z,100864.39
2019-05-17T05:48:41.602Z,100864.28
2019-05-17T05:51:09.279Z,100863.44
2019-05-17T05:53:36.727Z,100863.37
2019-05-17T05:56:04.389Z,100860.28
2019-05-17T05:58:32.742Z,100864.28
2019-05-17T06:01:02.354Z,100863.41
2019-05-17T06:03:29.263Z,100864.28
2019-05-17T06:05:56.870Z,100854.30
2019-05-17T06:08:24.173Z,100866.69
2019-05-17T06:10:53.127Z,100867.16
2019-05-17T06:13:21.821Z,100858.04
2019-05-17T06:15:51.775Z,100860.72
2019-05-17T06:18:19.292Z,100863.50
2019-05-17T06:20:46.954Z,100861.74
2019-05-17T06:23:15.553Z,100867.37
2019-05-17T06:25:43.792Z,100868.66
2019-05-17T06:28:11.722Z,100871.13
2019-05-17T06:30:42.717Z,100869.16
2019-05-17T06:33:11.702Z,100861.39
2019-05-17T06:35:38.683Z,100864.94
2019-05-17T06:38:06.062Z,100863.77
2019-05-17T06:40:33.262Z,100855.98
2019-05-17T06:43:04.252Z,100864.34
2019-05-17T06:45:32.540Z,100860.36
2019-05-17T06:48:02.369Z,100863.41
2019-05-17T06:50:29.473Z,100862.12
2019-05-17T06:52:57.361Z,100867.47
2019-05-17T06:55:24.639Z,100866.98
2019-05-17T06:57:52.766Z,100858.16
2019-05-17T07:00:23.762Z,100856.03
2019-05-17T07:02:49.896Z,100851.17
2019-05-17T07:05:20.068Z,100855.71
2019-05-17T07:07:49.842Z,100858.88
2019-05-17T07:10:19.476Z,100850.09
2019-05-17T07:12:57.739Z,100864.20
2019-05-17T07:15:15.620Z,100862.53
2019-05-17T07:17:43.250Z,100855.83
2019-05-17T07:20:10.848Z,100861.48
2019-05-17T07:22:41.209Z,100856.14
2019-05-17T07:25:10.797Z,100863.66
2019-05-17T07:27:44.839Z,100866.73
2019-05-17T07:30:09.942Z,100870.64
2019-05-17T07:32:40.270Z,100863.50
2019-05-17T07:35:07.404Z,100868.79
2019-05-17T07:37:34.674Z,100868.31
2019-05-17T07:40:05.441Z,100860.77
2019-05-17T07:42:32.957Z,100865.66
2019-05-17T07:45:00.692Z,100863.73
2019-05-17T07:47:29.468Z,100861.84
2019-05-17T07:49:56.974Z,100865.78
2019-05-17T07:52:24.583Z,100868.91
2019-05-17T07:54:51.699Z,100864.09
2019-05-17T07:57:22.277Z,100869.39
2019-05-17T07:59:50.799Z,100872.04
2019-05-17T08:02:19.905Z,100872.04
2019-05-17T08:04:49.929Z,100869.80
2019-05-17T08:07:16.683Z,100874.61
2019-05-17T08:09:44.717Z,100870.16
2019-05-17T08:12:12.163Z,100869.61
2019-05-17T08:14:40.352Z,100861.55
2019-05-17T08:17:09.790Z,100864.06
2019-05-17T08:19:37.074Z,100868.75
2019-05-17T08:22:04.611Z,100867.02
2019-05-17T08:24:32.039Z,100860.00
2019-05-17T08:27:00.032Z,100859.20
2019-05-17T08:29:29.747Z,100864.50
2019-05-17T08:31:57.161Z,100857.92
2019-05-17T08:34:25.004Z,100863.63
2019-05-17T08:36:52.327Z,100859.61
2019-05-17T08:39:19.926Z,100856.11
2019-05-17T08:41:49.639Z,100856.68
2019-05-17T08:44:16.640Z,100859.73
2019-05-17T08:46:44.534Z,100857.03
2019-05-17T08:49:12.133Z,100859.07
2019-05-17T08:51:40.848Z,100857.31
2019-05-17T08:54:10.392Z,100853.24
2019-05-17T08:56:40.177Z,100856.64
2019-05-17T08:59:09.613Z,100848.16
2019-05-17T09:01:39.201Z,100844.49
2019-05-17T09:04:06.262Z,100844.92
2019-05-17T09:06:33.994Z,100852.39
2019-05-17T09:09:01.443Z,100848.28
2019-05-17T09:11:30.694Z,100859.63
2019-05-17T09:14:01.640Z,100861.84
2019-05-17T09:16:27.217Z,100864.05
2019-05-17T09:18:54.815Z,100864.49
2019-05-17T09:21:22.276Z,100860.13
2019-05-17T09:23:50.431Z,100859.98
2019-05-17T09:26:20.045Z,100853.25
2019-05-17T09:28:49.812Z,100855.27
2019-05-17T09:31:17.270Z,100862.92
2019-05-17T09:33:45.182Z,100858.07
2019-05-17T09:36:12.746Z,100861.86
2019-05-17T09:38:40.603Z,100861.33
2019-05-17T09:41:09.355Z,100854.00
2019-05-17T09:43:37.056Z,100858.47
2019-05-17T09:46:05.137Z,100858.42
2019-05-17T09:48:32.785Z,100859.30
2019-05-17T09:51:00.430Z,100865.42
2019-05-17T09:53:27.672Z,100862.06
2019-05-17T09:55:55.325Z,100857.95
2019-05-17T09:58:22.609Z,100865.21
2019-05-17T10:00:50.121Z,100857.54
2019-05-17T10:03:23.248Z,100855.06
2019-05-17T10:05:49.537Z,100854.31
2019-05-17T10:08:16.883Z,100859.62
2019-05-17T10:10:44.268Z,100859.94
2019-05-17T10:13:11.465Z,100860.05
2019-05-17T10:15:40.856Z,100861.22
2019-05-17T10:18:11.030Z,100863.92
2019-05-17T10:20:39.901Z,100862.94
2019-05-17T10:23:07.140Z,100858.89
2019-05-17T10:25:35.728Z,100859.39
2019-05-17T10:28:03.425Z,100854.63
2019-05-17T10:30:30.869Z,100854.80
2019-05-17T10:32:59.998Z,100852.74
2019-05-17T10:35:29.520Z,100849.03
2019-05-17T10:37:59.355Z,100858.47
2019-05-17T10:40:29.922Z,100867.08
2019-05-17T10:42:57.251Z,100861.92
2019-05-17T10:45:24.962Z,100870.30
2019-05-17T10:47:53.609Z,100868.96
2019-05-17T10:50:21.436Z,100863.25
2019-05-17T10:52:49.206Z,100861.19
2019-05-17T10:55:16.744Z,100859.20
2019-05-17T10:57:45.315Z,100855.69
2019-05-17T11:00:14.715Z,100858.79
2019-05-17T11:02:42.212Z,100854.73
2019-05-17T11:05:11.088Z,100862.52
2019-05-17T11:07:38.779Z,100857.59
2019-05-17T11:10:07.066Z,100852.62
2019-05-17T11:12:34.569Z,100854.80
2019-05-17T11:15:10.926Z,100860.94
2019-05-17T11:17:31.736Z,100859.34
2019-05-17T11:19:59.136Z,100868.90
2019-05-17T11:22:26.874Z,100870.24
2019-05-17T11:24:54.301Z,100862.38
2019-05-17T11:27:21.650Z,100864.69
2019-05-17T11:29:49.426Z,100863.52
2019-05-17T11:32:17.051Z,100866.72
2019-05-17T11:34:44.433Z,100873.91
2019-05-17T11:37:12.788Z,100876.17
2019-05-17T11:39:40.244Z,100873.07
2019-05-17T11:42:07.543Z,100875.29
2019-05-17T11:44:34.935Z,100874.69
2019-05-17T11:47:02.504Z,100878.88
2019-05-17T11:49:30.317Z,100880.41
2019-05-17T11:51:57.943Z,100883.56
2019-05-17T11:54:25.526Z,100886.72
2019-05-17T11:56:52.757Z,100887.66
2019-05-17T11:59:20.038Z,100892.48
2019-05-17T12:01:49.141Z,100887.05
2019-05-17T12:04:16.457Z,100886.52
2019-05-17T12:06:44.137Z,100886.02
2019-05-17T12:09:11.956Z,100880.94
2019-05-17T12:11:39.335Z,100887.67
2019-05-17T12:14:06.774Z,100888.91
2019-05-17T12:16:34.037Z,100883.59
2019-05-17T12:19:02.373Z,100883.20
2019-05-17T12:21:31.074Z,100886.34
2019-05-17T12:23:58.247Z,100888.72
2019-05-17T12:26:25.786Z,100884.34
2019-05-17T12:28:54.050Z,100885.32
2019-05-17T12:31:21.302Z,100880.45
2019-05-17T12:33:48.809Z,100882.13
2019-05-17T12:36:16.117Z,100881.25
2019-05-17T12:38:43.921Z,100872.74
2019-05-17T12:41:11.955Z,100873.58
2019-05-17T12:43:39.521Z,100873.42
2019-05-17T12:46:06.809Z,100867.94
2019-05-17T12:48:34.158Z,100864.59
2019-05-17T12:51:01.532Z,100872.34
2019-05-17T12:53:30.185Z,100873.72
2019-05-17T12:55:57.499Z,100877.87
2019-05-17T12:58:25.124Z,100881.63
2019-05-17T13:00:53.571Z,100879.55
2019-05-17T13:03:21.200Z,100878.30
2019-05-17T13:05:48.400Z,100875.95
2019-05-17T13:08:16.285Z,100880.61
2019-05-17T13:10:44.082Z,100882.70
2019-05-17T13:13:11.999Z,100884.59
2019-05-17T13:15:39.155Z,100884.92
2019-05-17T13:18:06.399Z,100885.77
2019-05-17T13:20:33.867Z,100879.72
2019-05-17T13:23:01.672Z,100873.80
2019-05-17T13:25:29.288Z,100869.55
2019-05-17T13:27:56.899Z,100863.73
2019-05-17T13:30:25.901Z,100868.78
2019-05-17T13:32:53.466Z,100870.03
2019-05-17T13:35:20.851Z,100874.80
2019-05-17T13:37:48.222Z,100876.29
2019-05-17T13:40:15.851Z,100875.75
2019-05-17T13:42:43.411Z,100872.81
2019-05-17T13:45:11.254Z,100880.45
2019-05-17T13:47:39.398Z,100875.64
2019-05-17T13:50:07.658Z,100875.28
2019-05-17T13:52:35.312Z,100881.11
2019-05-17T13:55:03.747Z,100882.29
2019-05-17T13:57:31.269Z,100885.27
2019-05-17T13:59:58.941Z,100885.83
2019-05-17T14:02:27.011Z,100892.28
2019-05-17T14:04:54.234Z,100886.48
2019-05-17T14:07:21.637Z,100880.53
2019-05-17T14:09:49.365Z,100884.40
2019-05-17T14:12:16.929Z,100881.45
2019-05-17T14:14:44.267Z,100881.00
2019-05-17T14:17:12.251Z,100882.27
2019-05-17T14:19:39.486Z,100879.61
2019-05-17T14:22:07.186Z,100879.61
2019-05-17T14:24:34.917Z,100882.14
2019-05-17T14:27:02.075Z,100881.98
2019-05-17T14:29:29.881Z,100884.02
2019-05-17T14:31:57.054Z,100870.59
2019-05-17T14:34:24.586Z,100869.08
2019-05-17T14:36:51.977Z,100863.92
2019-05-17T14:39:19.425Z,100864.20
2019-05-17T14:41:46.984Z,100855.86
2019-05-17T14:44:14.279Z,100850.74
2019-05-17T14:46:41.674Z,100839.16
2019-05-17T14:49:09.105Z,100837.37
2019-05-17T14:51:36.677Z,100831.99
2019-05-17T14:54:04.092Z,100832.30
2019-05-17T14:56:31.455Z,100837.13
2019-05-17T14:58:58.700Z,100843.77
2019-05-17T15:01:26.517Z,100855.51
2019-05-17T15:03:54.419Z,100868.23
2019-05-17T15:06:21.849Z,100875.10
2019-05-17T15:08:49.147Z,100882.13
2019-05-17T15:11:16.834Z,100879.47
2019-05-17T15:13:43.981Z,100877.31
2019-05-17T15:16:11.207Z,100867.99
2019-05-17T15:18:38.537Z,100870.94
2019-05-17T15:21:05.713Z,100876.34
2019-05-17T15:23:32.897Z,100878.95
2019-05-17T15:26:00.594Z,100877.82
2019-05-17T15:28:28.484Z,100879.58
2019-05-17T15:30:56.190Z,100872.05
2019-05-17T15:33:23.782Z,100871.25
2019-05-17T15:35:52.065Z,100872.38
2019-05-17T15:38:19.594Z,100875.03
2019-05-17T15:40:47.320Z,100871.25
2019-05-17T15:43:14.742Z,100871.22
2019-05-17T15:45:42.226Z,100869.91
2019-05-17T15:48:09.753Z,100878.02
2019-05-17T15:50:37.107Z,100870.92
2019-05-17T15:53:04.358Z,100873.88
2019-05-17T15:55:33.011Z,100871.73
2019-05-17T15:58:00.507Z,100872.95
2019-05-17T16:00:28.123Z,100870.02
2019-05-17T16:02:55.879Z,100868.31
2019-05-17T16:05:23.279Z,100864.97
2019-05-17T16:07:51.164Z,100862.25
2019-05-17T16:10:19.531Z,100864.41
2019-05-17T16:13:00.882Z,100865.79
2019-05-17T16:15:17.270Z,100861.23
2019-05-17T16:17:51.936Z,100862.03
2019-05-17T16:20:19.533Z,100867.11
2019-05-17T16:22:47.321Z,100872.06
2019-05-17T16:25:15.257Z,100875.41
2019-05-17T16:27:46.904Z,100869.20
2019-05-17T16:30:14.309Z,100864.84
2019-05-17T16:32:41.672Z,100860.45
2019-05-17T16:35:09.372Z,100859.06
2019-05-17T16:37:36.889Z,100863.38
2019-05-17T16:40:04.678Z,100862.05
2019-05-17T16:42:32.112Z,100865.92
2019-05-17T16:44:59.777Z,100869.58
2019-05-17T16:47:27.212Z,100872.58
2019-05-17T16:49:54.729Z,100877.82
2019-05-17T16:52:22.142Z,100878.44
2019-05-17T16:54:49.582Z,100875.53
2019-05-17T16:57:17.519Z,100869.53
2019-05-17T16:59:45.106Z,100872.56
2019-05-17T17:02:12.606Z,100869.95
2019-05-17T17:04:41.691Z,100866.04
2019-05-17T17:07:10.088Z,100865.00
2019-05-17T17:09:37.521Z,100863.66
2019-05-17T17:12:05.317Z,100867.55
2019-05-17T17:14:32.890Z,100873.32
2019-05-17T17:17:00.321Z,100872.61
2019-05-17T17:19:27.837Z,100866.55
2019-05-17T17:21:55.890Z,100877.20
2019-05-17T17:24:23.261Z,100875.75
2019-05-17T17:26:50.862Z,100876.68
2019-05-17T17:29:18.569Z,100880.36
2019-05-17T17:31:46.045Z,100884.86
2019-05-17T17:34:13.682Z,100885.77
2019-05-17T17:36:41.327Z,100885.16
2019-05-17T17:39:08.765Z,100887.90
2019-05-17T17:41:36.669Z,100895.98
2019-05-17T17:44:04.225Z,100897.95
2019-05-17T17:46:31.930Z,100891.75
2019-05-17T17:48:59.969Z,100893.84
2019-05-17T17:51:27.463Z,100888.88
2019-05-17T17:53:55.115Z,100889.97
2019-05-17T17:56:22.933Z,100898.72
2019-05-17T17:58:50.714Z,100903.59
2019-05-17T18:01:18.272Z,100905.28
2019-05-17T18:03:45.704Z,100898.23
2019-05-17T18:06:12.883Z,100905.88
2019-05-17T18:08:40.459Z,100896.33
2019-05-17T18:11:08.311Z,100895.06
2019-05-17T18:13:36.212Z,100897.74
2019-05-17T18:16:03.955Z,100899.30
2019-05-17T18:18:31.250Z,100905.59
2019-05-17T18:20:59.076Z,100897.03
2019-05-17T18:23:26.712Z,100900.69
2019-05-17T18:25:55.206Z,100900.78
2019-05-17T18:28:23.213Z,100897.81
2019-05-17T18:30:50.699Z,100896.20
2019-05-17T18:33:18.459Z,100899.47
2019-05-17T18:35:46.630Z,100903.60
2019-05-17T18:38:17.636Z,100912.06
2019-05-17T18:40:45.000Z,100907.70
2019-05-17T18:43:12.403Z,100909.41
2019-05-17T18:45:39.749Z,100917.88
2019-05-17T18:48:06.920Z,100929.00
2019-05-17T18:50:34.315Z,100934.33
2019-05-17T18:53:02.500Z,100945.64
2019-05-17T18:55:30.419Z,100933.89
2019-05-17T18:57:57.827Z,100943.83
2019-05-17T19:00:25.301Z,100950.13
2019-05-17T19:02:52.951Z,100951.15
2019-05-17T19:05:21.734Z,100947.72
2019-05-17T19:07:49.432Z,100954.83
2019-05-17T19:10:18.024Z,100952.30
2019-05-17T19:12:45.598Z,100953.17
2019-05-17T19:15:13.862Z,100950.61
2019-05-17T19:17:41.320Z,100963.05
2019-05-17T19:20:09.409Z,100957.39
2019-05-17T19:22:36.806Z,100955.66
2019-05-17T19:25:06.167Z,100956.60
2019-05-17T19:27:33.568Z,100951.38
2019-05-17T19:30:01.223Z,100955.02
2019-05-17T19:32:28.748Z,100958.28
2019-05-17T19:34:57.380Z,100954.80
2019-05-17T19:37:24.983Z,100953.11
2019-05-17T19:39:52.983Z,100955.06
2019-05-17T19:42:22.778Z,100952.14
2019-05-17T19:44:58.618Z,100951.03
2019-05-17T19:47:19.416Z,100958.75
2019-05-17T19:49:46.932Z,100953.70
2019-05-17T19:52:15.491Z,100952.45
2019-05-17T19:54:42.873Z,100961.33
2019-05-17T19:57:10.803Z,100959.60
2019-05-17T19:59:38.241Z,100960.24
2019-05-17T20:02:06.657Z,100968.19
2019-05-17T20:04:34.715Z,100968.63
2019-05-17T20:07:02.426Z,100973.52
2019-05-17T20:09:30.209Z,100980.27
2019-05-17T20:11:57.969Z,100982.14
2019-05-17T20:14:25.691Z,100983.53
2019-05-17T20:16:53.343Z,100987.98
2019-05-17T20:19:21.213Z,100983.28
2019-05-17T20:21:48.779Z,100987.69
2019-05-17T20:24:18.279Z,100993.42
2019-05-17T20:26:45.954Z,100986.37
2019-05-17T20:29:13.715Z,100987.59
2019-05-17T20:31:41.272Z,100988.88
2019-05-17T20:34:08.921Z,100983.59
2019-05-17T20:36:36.251Z,100990.20
2019-05-17T20:39:04.492Z,100989.90
2019-05-17T20:41:32.350Z,100983.76
2019-05-17T20:44:00.086Z,100986.09
2019-05-17T20:46:30.535Z,100988.33
2019-05-17T20:48:57.858Z,100984.77
2019-05-17T20:51:25.417Z,100985.72
2019-05-17T20:53:53.156Z,100988.52
2019-05-17T20:56:32.722Z,100982.79
2019-05-17T20:58:51.602Z,100989.37
2019-05-17T21:01:19.057Z,100993.31
2019-05-17T21:03:46.333Z,100988.08
2019-05-17T21:06:13.800Z,100990.47
2019-05-17T21:08:46.195Z,100992.70
2019-05-17T21:11:12.474Z,100990.62
2019-05-17T21:13:40.081Z,100989.30
2019-05-17T21:16:07.213Z,100991.56
2019-05-17T21:18:34.689Z,100993.35
2019-05-17T21:21:02.367Z,100997.34
2019-05-17T21:23:29.863Z,100989.19
2019-05-17T21:25:59.304Z,100990.63
2019-05-17T21:28:27.137Z,100986.16
2019-05-17T21:30:54.604Z,100983.02
2019-05-17T21:33:22.105Z,100984.31
2019-05-17T21:35:49.820Z,100981.23
2019-05-17T21:38:17.387Z,100978.61
2019-05-17T21:40:44.852Z,100981.70
2019-05-17T21:43:12.194Z,100982.58
2019-05-17T21:45:40.271Z,100983.02
2019-05-17T21:48:07.384Z,100977.35
2019-05-17T21:50:35.005Z,100975.55
2019-05-17T21:53:03.630Z,100979.69
2019-05-17T21:55:31.237Z,100977.45
2019-05-17T21:58:00.552Z,100981.86
2019-05-17T22:00:53.432Z,100988.00
2019-05-17T22:03:21.263Z,100988.42
2019-05-17T22:05:48.554Z,100988.50
2019-05-17T22:08:16.106Z,100989.09
2019-05-17T22:10:44.012Z,100997.44
2019-05-17T22:13:11.671Z,100998.31
2019-05-17T22:15:39.268Z,100993.97
2019-05-17T22:18:06.881Z,100989.53
2019-05-17T22:20:34.563Z,100989.95
2019-05-17T22:23:02.336Z,100997.95
2019-05-17T22:25:30.026Z,100999.27
2019-05-17T22:27:57.745Z,100992.87
2019-05-17T22:30:25.241Z,100993.28
2019-05-17T22:32:53.647Z,100994.11
2019-05-17T22:35:21.106Z,100998.10
2019-05-17T22:37:49.120Z,101002.45
2019-05-17T22:40:17.021Z,101010.77
2019-05-17T22:42:44.452Z,101010.80
2019-05-17T22:45:12.116Z,101015.20
2019-05-17T22:47:39.623Z,101022.69
2019-05-17T22:50:07.718Z,101010.91
2019-05-17T22:52:35.441Z,100997.75
2019-05-17T22:55:02.866Z,101012.22
2019-05-17T22:57:31.537Z,101021.02
2019-05-17T23:00:00.557Z,101015.36
2019-05-17T23:02:28.005Z,101021.11
2019-05-17T23:04:55.732Z,101016.80
2019-05-17T23:07:23.290Z,101014.17
2019-05-17T23:09:51.158Z,101002.81
2019-05-17T23:12:19.183Z,100998.89
2019-05-17T23:14:46.950Z,100984.83
2019-05-17T23:17:14.674Z,101001.41
2019-05-17T23:19:42.237Z,100990.33
2019-05-17T23:22:09.714Z,100989.84
2019-05-17T23:24:37.628Z,100994.67
2019-05-17T23:27:05.028Z,100992.48
2019-05-17T23:29:32.784Z,100994.20
2019-05-17T23:32:00.558Z,100996.05
2019-05-17T23:34:28.136Z,100996.45
2019-05-17T23:36:55.932Z,100996.84
2019-05-17T23:39:23.803Z,100992.53
2019-05-17T23:41:51.306Z,100978.70
2019-05-17T23:44:19.018Z,100978.70
2019-05-17T23:46:47.725Z,100995.34
2019-05-17T23:49:15.185Z,100994.41
2019-05-17T23:51:42.798Z,100984.72
2019-05-17T23:54:10.346Z,100986.91
2019-05-17T23:56:37.953Z,100987.36
2019-05-17T23:59:05.433Z,100987.36
